createdAt,value
2018-04-28T00:00:23.082Z,6.85
2018-04-28T00:01:30.259Z,6.83
2018-04-28T00:02:34.922Z,6.78
2018-04-28T00:03:41.578Z,6.84
2018-04-28T00:04:47.756Z,6.94
2018-04-28T00:05:53.920Z,6.95
2018-04-28T00:07:00.126Z,6.97
2018-04-28T00:08:06.256Z,6.89
2018-04-28T00:09:12.436Z,6.75
2018-04-28T00:10:18.593Z,6.65
2018-04-28T00:11:24.826Z,6.57
2018-04-28T00:12:30.909Z,6.46
2018-04-28T00:13:37.093Z,6.32
2018-04-28T00:14:43.260Z,6.17
2018-04-28T00:15:49.405Z,6.13
2018-04-28T00:16:55.110Z,6.17
2018-04-28T00:18:01.739Z,6.16
2018-04-28T00:19:07.890Z,6.04
2018-04-28T00:20:14.047Z,5.95
2018-04-28T00:21:20.241Z,5.91
2018-04-28T00:22:26.421Z,5.87
2018-04-28T00:23:32.536Z,5.83
2018-04-28T00:24:38.196Z,5.84
2018-04-28T00:25:44.845Z,5.85
2018-04-28T00:26:51.030Z,5.78
2018-04-28T00:27:57.153Z,5.73
2018-04-28T00:29:03.305Z,5.69
2018-04-28T00:30:09.459Z,5.69
2018-04-28T00:31:15.607Z,5.65
2018-04-28T00:32:21.781Z,5.66
2018-04-28T00:33:27.926Z,5.65
2018-04-28T00:34:35.062Z,5.57
2018-04-28T00:35:40.233Z,5.50
2018-04-28T00:36:46.418Z,5.46
2018-04-28T00:37:52.531Z,5.44
2018-04-28T00:38:58.677Z,5.40
2018-04-28T00:40:04.819Z,5.44
2018-04-28T00:41:10.478Z,5.42
2018-04-28T00:42:17.119Z,5.38
2018-04-28T00:43:23.247Z,5.32
2018-04-28T00:44:29.387Z,5.31
2018-04-28T00:45:35.527Z,5.28
2018-04-28T00:46:41.212Z,5.27
2018-04-28T00:47:47.821Z,5.28
2018-04-28T00:48:53.957Z,5.26
2018-04-28T00:50:00.093Z,5.26
2018-04-28T00:51:06.245Z,5.30
2018-04-28T00:52:12.447Z,5.31
2018-04-28T00:53:18.523Z,5.27
2018-04-28T00:54:24.663Z,5.27
2018-04-28T00:55:30.807Z,5.25
2018-04-28T00:56:36.959Z,5.24
2018-04-28T00:57:43.096Z,5.20
2018-04-28T00:58:49.242Z,5.20
2018-04-28T00:59:55.359Z,5.19
2018-04-28T01:01:01.507Z,5.14
2018-04-28T01:02:07.651Z,5.11
2018-04-28T01:03:13.766Z,5.02
2018-04-28T01:04:20.001Z,4.98
2018-04-28T01:05:25.540Z,4.96
2018-04-28T01:06:32.181Z,4.99
2018-04-28T01:07:38.412Z,4.94
2018-04-28T01:08:43.955Z,4.93
2018-04-28T01:09:50.574Z,4.95
2018-04-28T01:10:56.710Z,4.95
2018-04-28T01:12:02.863Z,4.95
2018-04-28T01:13:08.994Z,4.93
2018-04-28T01:14:15.123Z,4.91
2018-04-28T01:15:20.761Z,4.86
2018-04-28T01:16:27.372Z,4.85
2018-04-28T01:17:33.535Z,4.82
2018-04-28T01:18:39.668Z,4.80
2018-04-28T01:19:45.779Z,4.78
2018-04-28T01:20:51.916Z,4.76
2018-04-28T01:21:58.053Z,4.68
2018-04-28T01:23:04.160Z,4.70
2018-04-28T01:24:10.409Z,4.63
2018-04-28T01:25:16.424Z,4.65
2018-04-28T01:26:22.537Z,4.67
2018-04-28T01:27:28.690Z,4.67
2018-04-28T01:28:34.794Z,4.68
2018-04-28T01:29:40.935Z,4.64
2018-04-28T01:30:47.054Z,4.59
2018-04-28T01:31:53.224Z,4.59
2018-04-28T01:32:59.313Z,4.58
2018-04-28T01:34:05.449Z,4.57
2018-04-28T01:35:11.578Z,4.54
2018-04-28T01:36:17.694Z,4.50
2018-04-28T01:37:23.845Z,4.50
2018-04-28T01:38:29.960Z,4.51
2018-04-28T01:39:36.081Z,4.52
2018-04-28T01:40:42.197Z,4.53
2018-04-28T01:41:48.379Z,4.56
2018-04-28T01:42:54.469Z,4.57
2018-04-28T01:44:00.580Z,4.50
2018-04-28T01:45:06.677Z,4.50
2018-04-28T01:46:12.826Z,4.45
2018-04-28T01:47:18.931Z,4.42
2018-04-28T01:48:24.568Z,4.37
2018-04-28T01:49:31.169Z,4.31
2018-04-28T01:50:37.293Z,4.29
2018-04-28T01:51:43.401Z,4.29
2018-04-28T01:52:49.523Z,4.36
2018-04-28T01:53:55.736Z,4.44
2018-04-28T01:55:01.762Z,4.43
2018-04-28T01:56:07.881Z,4.41
2018-04-28T01:57:13.995Z,4.37
2018-04-28T01:58:20.140Z,4.36
2018-04-28T01:59:26.223Z,4.39
2018-04-28T02:00:32.380Z,4.43
2018-04-28T02:01:38.456Z,4.45
2018-04-28T02:02:44.575Z,4.42
2018-04-28T02:03:51.711Z,4.38
2018-04-28T02:04:56.818Z,4.37
2018-04-28T02:06:02.936Z,4.34
2018-04-28T02:07:09.050Z,4.30
2018-04-28T02:08:15.191Z,4.28
2018-04-28T02:09:21.279Z,4.28
2018-04-28T02:10:27.410Z,4.29
2018-04-28T02:11:33.004Z,4.23
2018-04-28T02:12:39.634Z,4.16
2018-04-28T02:13:45.776Z,4.10
2018-04-28T02:14:51.835Z,4.09
2018-04-28T02:15:57.956Z,4.12
2018-04-28T02:17:04.132Z,4.14
2018-04-28T02:18:10.181Z,4.16
2018-04-28T02:19:16.399Z,4.20
2018-04-28T02:20:22.411Z,4.25
2018-04-28T02:21:28.522Z,4.27
2018-04-28T02:22:34.618Z,4.28
2018-04-28T02:23:40.769Z,4.26
2018-04-28T02:24:46.855Z,4.18
2018-04-28T02:25:52.957Z,4.11
2018-04-28T02:26:59.085Z,4.17
2018-04-28T02:28:04.690Z,4.24
2018-04-28T02:29:11.320Z,4.29
2018-04-28T02:30:17.409Z,4.29
2018-04-28T02:31:23.531Z,4.22
2018-04-28T02:32:29.637Z,4.21
2018-04-28T02:33:35.727Z,4.24
2018-04-28T02:34:41.862Z,4.23
2018-04-28T02:35:48.940Z,4.19
2018-04-28T02:36:54.072Z,4.19
2018-04-28T02:38:00.180Z,4.14
2018-04-28T02:39:06.393Z,4.10
2018-04-28T02:40:12.423Z,4.15
2018-04-28T02:41:18.002Z,4.13
2018-04-28T02:42:24.609Z,4.19
2018-04-28T02:43:30.223Z,4.12
2018-04-28T02:44:36.832Z,4.05
2018-04-28T02:45:42.952Z,3.98
2018-04-28T02:46:49.051Z,3.95
2018-04-28T02:47:55.150Z,3.89
2018-04-28T02:49:00.765Z,3.89
2018-04-28T02:50:07.627Z,3.90
2018-04-28T02:51:13.490Z,3.90
2018-04-28T02:52:19.096Z,3.98
2018-04-28T02:53:25.689Z,3.95
2018-04-28T02:54:32.791Z,3.92
2018-04-28T02:55:37.928Z,3.87
2018-04-28T02:56:44.018Z,3.83
2018-04-28T02:57:50.116Z,3.88
2018-04-28T02:58:56.246Z,3.94
2018-04-28T03:00:02.388Z,4.03
2018-04-28T03:01:08.462Z,3.93
2018-04-28T03:02:14.552Z,3.92
2018-04-28T03:03:20.655Z,3.93
2018-04-28T03:04:26.759Z,3.90
2018-04-28T03:05:32.891Z,3.87
2018-04-28T03:06:38.997Z,3.86
2018-04-28T03:07:45.085Z,3.90
2018-04-28T03:08:51.194Z,3.86
2018-04-28T03:09:56.795Z,3.94
2018-04-28T03:11:03.423Z,3.95
2018-04-28T03:12:09.517Z,3.97
2018-04-28T03:13:15.102Z,3.91
2018-04-28T03:14:21.703Z,3.86
2018-04-28T03:15:27.309Z,3.83
2018-04-28T03:16:34.925Z,3.86
2018-04-28T03:17:40.015Z,3.82
2018-04-28T03:18:46.122Z,3.82
2018-04-28T03:19:52.219Z,3.84
2018-04-28T03:20:58.403Z,4.04
2018-04-28T03:22:03.944Z,4.03
2018-04-28T03:23:10.036Z,4.11
2018-04-28T03:24:16.690Z,4.31
2018-04-28T03:25:22.736Z,4.27
2018-04-28T03:26:28.856Z,4.20
2018-04-28T03:27:34.947Z,4.10
2018-04-28T03:28:41.043Z,4.13
2018-04-28T03:29:47.142Z,4.07
2018-04-28T03:30:53.273Z,4.07
2018-04-28T03:31:59.372Z,4.17
2018-04-28T03:33:04.947Z,4.14
2018-04-28T03:34:11.047Z,4.12
2018-04-28T03:35:17.652Z,4.15
2018-04-28T03:36:23.773Z,4.04
2018-04-28T03:37:29.860Z,4.02
2018-04-28T03:38:35.451Z,4.04
2018-04-28T03:39:42.061Z,4.12
2018-04-28T03:40:48.146Z,4.04
2018-04-28T03:41:54.281Z,3.98
2018-04-28T03:43:00.379Z,3.90
2018-04-28T03:44:06.464Z,3.83
2018-04-28T03:45:12.567Z,3.67
2018-04-28T03:46:18.693Z,3.64
2018-04-28T03:47:24.765Z,3.71
2018-04-28T03:48:30.871Z,3.82
2018-04-28T03:49:36.969Z,3.95
2018-04-28T03:50:43.076Z,3.93
2018-04-28T03:51:48.696Z,3.90
2018-04-28T03:52:55.290Z,3.98
2018-04-28T03:54:00.888Z,4.08
2018-04-28T03:55:07.488Z,3.95
2018-04-28T03:56:13.579Z,3.94
2018-04-28T03:57:19.700Z,4.01
2018-04-28T03:58:25.779Z,3.90
2018-04-28T03:59:31.889Z,3.92
2018-04-28T04:00:38.486Z,4.01
2018-04-28T04:01:43.618Z,4.21
2018-04-28T04:02:50.213Z,4.36
2018-04-28T04:03:56.397Z,4.43
2018-04-28T04:05:02.413Z,4.38
2018-04-28T04:06:08.525Z,4.38
2018-04-28T04:07:14.652Z,4.43
2018-04-28T04:08:20.753Z,4.53
2018-04-28T04:09:26.870Z,4.61
2018-04-28T04:10:32.484Z,4.61
2018-04-28T04:11:38.601Z,4.56
2018-04-28T04:12:46.219Z,4.53
2018-04-28T04:13:51.322Z,4.55
2018-04-28T04:14:57.438Z,4.56
2018-04-28T04:16:03.551Z,4.49
2018-04-28T04:17:09.714Z,4.54
2018-04-28T04:18:15.838Z,4.66
2018-04-28T04:19:21.900Z,4.78
2018-04-28T04:20:28.018Z,4.77
2018-04-28T04:21:34.139Z,4.68
2018-04-28T04:22:39.787Z,4.55
2018-04-28T04:23:46.389Z,4.44
2018-04-28T04:24:52.489Z,4.44
2018-04-28T04:25:58.605Z,4.34
2018-04-28T04:27:04.725Z,4.34
2018-04-28T04:28:10.862Z,4.32
2018-04-28T04:29:16.977Z,4.26
2018-04-28T04:30:22.601Z,4.35
2018-04-28T04:31:29.213Z,4.31
2018-04-28T04:32:35.330Z,4.29
2018-04-28T04:33:41.422Z,4.30
2018-04-28T04:34:47.052Z,4.27
2018-04-28T04:35:53.159Z,4.26
2018-04-28T04:36:59.769Z,4.23
2018-04-28T04:38:05.902Z,4.19
2018-04-28T04:39:11.509Z,4.18
2018-04-28T04:40:17.624Z,4.14
2018-04-28T04:41:24.233Z,4.12
2018-04-28T04:42:30.390Z,4.18
2018-04-28T04:43:36.487Z,4.25
2018-04-28T04:44:42.576Z,4.38
2018-04-28T04:45:48.701Z,4.43
2018-04-28T04:46:54.817Z,4.44
2018-04-28T04:48:00.958Z,4.48
2018-04-28T04:49:07.062Z,4.51
2018-04-28T04:50:13.167Z,4.57
2018-04-28T04:51:19.295Z,4.61
2018-04-28T04:52:25.406Z,4.69
2018-04-28T04:53:31.562Z,4.71
2018-04-28T04:54:37.674Z,4.82
2018-04-28T04:55:43.783Z,4.85
2018-04-28T04:56:49.914Z,4.85
2018-04-28T04:57:56.079Z,4.90
2018-04-28T04:59:02.174Z,4.98
2018-04-28T05:00:08.384Z,5.03
2018-04-28T05:01:14.419Z,5.07
2018-04-28T05:02:20.085Z,5.09
2018-04-28T05:03:26.712Z,5.22
2018-04-28T05:04:32.825Z,5.29
2018-04-28T05:05:38.943Z,5.29
2018-04-28T05:06:45.074Z,5.36
2018-04-28T05:07:51.220Z,5.38
2018-04-28T05:08:57.379Z,5.34
2018-04-28T05:10:03.491Z,5.36
2018-04-28T05:11:09.628Z,5.43
2018-04-28T05:12:15.271Z,5.45
2018-04-28T05:13:21.400Z,5.47
2018-04-28T05:14:28.059Z,5.56
2018-04-28T05:15:34.187Z,5.55
2018-04-28T05:16:40.385Z,5.68
2018-04-28T05:17:46.476Z,5.75
2018-04-28T05:18:52.621Z,5.73
2018-04-28T05:19:58.786Z,5.67
2018-04-28T05:21:04.918Z,5.74
2018-04-28T05:22:11.089Z,5.82
2018-04-28T05:23:17.227Z,5.94
2018-04-28T05:24:22.900Z,6.01
2018-04-28T05:25:29.532Z,6.11
2018-04-28T05:26:35.689Z,6.17
2018-04-28T05:27:41.846Z,6.19
2018-04-28T05:28:47.993Z,6.27
2018-04-28T05:29:53.724Z,6.32
2018-04-28T05:31:00.385Z,6.45
2018-04-28T05:32:06.474Z,6.44
2018-04-28T05:33:12.652Z,6.45
2018-04-28T05:34:18.842Z,6.50
2018-04-28T05:35:24.963Z,6.49
2018-04-28T05:36:31.159Z,6.52
2018-04-28T05:37:38.385Z,6.54
2018-04-28T05:38:43.481Z,6.57
2018-04-28T05:39:49.184Z,6.59
2018-04-28T05:40:56.822Z,6.64
2018-04-28T05:42:02.006Z,6.78
2018-04-28T05:43:08.169Z,6.92
2018-04-28T05:44:14.379Z,7.06
2018-04-28T05:45:20.552Z,7.16
2018-04-28T05:46:26.708Z,7.22
2018-04-28T05:47:32.419Z,7.23
2018-04-28T05:48:38.573Z,7.21
2018-04-28T05:49:45.267Z,7.23
2018-04-28T05:50:51.461Z,7.25
2018-04-28T05:51:57.127Z,7.36
2018-04-28T05:53:03.831Z,7.53
2018-04-28T05:54:10.004Z,7.70
2018-04-28T05:55:16.236Z,7.85
2018-04-28T05:56:22.410Z,7.95
2018-04-28T05:57:28.597Z,7.98
2018-04-28T05:58:35.772Z,8.09
2018-04-28T05:59:40.976Z,8.23
2018-04-28T06:00:47.207Z,8.26
2018-04-28T06:01:53.393Z,8.27
2018-04-28T06:02:59.591Z,8.26
2018-04-28T06:04:05.777Z,8.27
2018-04-28T06:05:11.999Z,8.34
2018-04-28T06:06:18.200Z,8.39
2018-04-28T06:07:24.431Z,8.42
2018-04-28T06:08:30.618Z,8.45
2018-04-28T06:09:36.831Z,8.52
2018-04-28T06:10:43.032Z,8.60
2018-04-28T06:11:49.278Z,8.63
2018-04-28T06:12:55.487Z,8.63
2018-04-28T06:14:01.689Z,8.61
2018-04-28T06:15:07.899Z,8.61
2018-04-28T06:16:14.120Z,8.68
2018-04-28T06:17:20.414Z,8.75
2018-04-28T06:18:26.576Z,8.84
2018-04-28T06:19:32.386Z,8.87
2018-04-28T06:20:39.037Z,8.96
2018-04-28T06:21:44.921Z,9.01
2018-04-28T06:22:52.489Z,9.03
2018-04-28T06:23:57.184Z,9.09
2018-04-28T06:25:03.908Z,9.18
2018-04-28T06:26:10.128Z,9.24
2018-04-28T06:27:16.415Z,9.28
2018-04-28T06:28:22.600Z,9.36
2018-04-28T06:29:28.851Z,9.43
2018-04-28T06:30:35.076Z,9.46
2018-04-28T06:31:41.306Z,9.55
2018-04-28T06:32:47.579Z,9.63
2018-04-28T06:33:53.803Z,9.62
2018-04-28T06:35:00.046Z,9.65
2018-04-28T06:36:06.135Z,9.75
2018-04-28T06:37:12.546Z,9.77
2018-04-28T06:38:18.797Z,9.84
2018-04-28T06:39:25.017Z,9.90
2018-04-28T06:40:31.437Z,9.98
2018-04-28T06:41:37.007Z,10.08
2018-04-28T06:42:43.906Z,10.14
2018-04-28T06:43:50.015Z,10.22
2018-04-28T06:44:56.254Z,10.35
2018-04-28T06:46:02.506Z,10.49
2018-04-28T06:47:08.755Z,10.61
2018-04-28T06:48:15.055Z,10.76
2018-04-28T06:49:21.286Z,10.87
2018-04-28T06:50:27.541Z,10.95
2018-04-28T06:51:33.317Z,11.04
2018-04-28T06:52:40.080Z,11.07
2018-04-28T06:53:46.407Z,11.13
2018-04-28T06:54:52.599Z,11.19
2018-04-28T06:55:58.862Z,11.24
2018-04-28T06:57:05.142Z,11.28
2018-04-28T06:58:11.046Z,11.34
2018-04-28T06:59:17.728Z,11.35
2018-04-28T07:00:23.969Z,11.34
2018-04-28T07:01:29.779Z,11.39
2018-04-28T07:02:36.657Z,11.46
2018-04-28T07:03:42.882Z,11.63
2018-04-28T07:04:49.140Z,11.69
2018-04-28T07:05:55.433Z,11.67
2018-04-28T07:07:01.757Z,11.67
2018-04-28T07:08:08.041Z,11.70
2018-04-28T07:09:14.405Z,11.73
2018-04-28T07:10:20.676Z,11.77
2018-04-28T07:11:26.974Z,11.81
2018-04-28T07:12:32.787Z,11.86
2018-04-28T07:13:39.105Z,11.89
2018-04-28T07:14:45.440Z,11.91
2018-04-28T07:15:51.743Z,11.95
2018-04-28T07:16:58.550Z,11.98
2018-04-28T07:18:04.869Z,12.01
2018-04-28T07:19:11.205Z,12.08
2018-04-28T07:20:17.009Z,12.13
2018-04-28T07:21:23.847Z,12.15
2018-04-28T07:22:29.674Z,12.19
2018-04-28T07:23:36.492Z,12.21
2018-04-28T07:24:42.350Z,12.21
2018-04-28T07:25:49.148Z,12.21
2018-04-28T07:26:55.477Z,12.23
2018-04-28T07:28:02.787Z,12.25
2018-04-28T07:29:08.142Z,12.30
2018-04-28T07:30:14.480Z,12.35
2018-04-28T07:31:21.036Z,12.41
2018-04-28T07:32:26.716Z,12.50
2018-04-28T07:33:32.967Z,12.55
2018-04-28T07:34:39.822Z,12.57
2018-04-28T07:35:46.134Z,12.57
2018-04-28T07:36:52.478Z,12.58
2018-04-28T07:37:58.831Z,12.61
2018-04-28T07:39:05.153Z,12.61
2018-04-28T07:40:11.530Z,12.61
2018-04-28T07:41:17.831Z,12.64
2018-04-28T07:42:23.830Z,12.67
2018-04-28T07:43:30.036Z,12.74
2018-04-28T07:44:36.897Z,12.75
2018-04-28T07:45:42.722Z,12.79
2018-04-28T07:46:49.073Z,12.79
2018-04-28T07:47:55.918Z,12.84
2018-04-28T07:49:02.277Z,12.90
2018-04-28T07:50:08.648Z,12.94
2018-04-28T07:51:14.507Z,12.98
2018-04-28T07:52:21.324Z,13.00
2018-04-28T07:53:27.668Z,13.03
2018-04-28T07:54:34.047Z,13.07
2018-04-28T07:55:40.387Z,13.09
2018-04-28T07:56:46.745Z,13.12
2018-04-28T07:57:52.619Z,13.17
2018-04-28T07:58:59.462Z,13.23
2018-04-28T08:00:05.844Z,13.26
2018-04-28T08:01:12.183Z,13.30
2018-04-28T08:02:19.055Z,13.30
2018-04-28T08:03:24.408Z,13.31
2018-04-28T08:04:31.288Z,13.32
2018-04-28T08:05:37.634Z,13.36
2018-04-28T08:06:43.988Z,13.40
2018-04-28T08:07:49.848Z,13.43
2018-04-28T08:08:56.787Z,13.44
2018-04-28T08:10:02.600Z,13.48
2018-04-28T08:11:09.457Z,13.48
2018-04-28T08:12:15.808Z,13.50
2018-04-28T08:13:22.192Z,13.54
2018-04-28T08:14:28.575Z,13.58
2018-04-28T08:15:34.930Z,13.59
2018-04-28T08:16:41.299Z,13.60
2018-04-28T08:17:47.166Z,13.62
2018-04-28T08:18:54.037Z,13.67
2018-04-28T08:20:00.434Z,13.71
2018-04-28T08:21:06.791Z,13.76
2018-04-28T08:22:12.671Z,13.78
2018-04-28T08:23:19.534Z,13.82
2018-04-28T08:24:25.919Z,13.88
2018-04-28T08:25:32.401Z,13.92
2018-04-28T08:26:39.661Z,13.97
2018-04-28T08:27:45.061Z,14.04
2018-04-28T08:28:51.440Z,14.10
2018-04-28T08:29:57.867Z,14.11
2018-04-28T08:31:04.222Z,14.14
2018-04-28T08:32:10.592Z,14.18
2018-04-28T08:33:16.980Z,14.25
2018-04-28T08:34:22.873Z,14.32
2018-04-28T08:35:29.766Z,14.36
2018-04-28T08:36:35.666Z,14.42
2018-04-28T08:37:42.544Z,14.42
2018-04-28T08:38:48.931Z,14.44
2018-04-28T08:39:55.328Z,14.46
2018-04-28T08:41:01.710Z,14.45
2018-04-28T08:42:07.597Z,14.50
2018-04-28T08:43:14.012Z,14.56
2018-04-28T08:44:21.881Z,14.59
2018-04-28T08:45:26.842Z,14.60
2018-04-28T08:46:33.185Z,14.61
2018-04-28T08:47:39.588Z,14.64
2018-04-28T08:48:45.973Z,14.68
2018-04-28T08:49:52.897Z,14.73
2018-04-28T08:50:58.797Z,14.77
2018-04-28T08:52:05.682Z,14.83
2018-04-28T08:53:12.068Z,14.89
2018-04-28T08:54:18.494Z,14.88
2018-04-28T08:55:24.911Z,14.88
2018-04-28T08:56:31.288Z,14.87
2018-04-28T08:57:38.193Z,14.87
2018-04-28T08:58:43.607Z,14.85
2018-04-28T08:59:50.042Z,14.87
2018-04-28T09:00:56.900Z,14.92
2018-04-28T09:02:02.812Z,14.95
2018-04-28T09:03:09.729Z,14.95
2018-04-28T09:04:16.138Z,15.03
2018-04-28T09:05:22.559Z,15.09
2018-04-28T09:06:28.957Z,15.09
2018-04-28T09:07:34.878Z,15.16
2018-04-28T09:08:41.769Z,15.20
2018-04-28T09:09:48.190Z,15.25
2018-04-28T09:10:54.619Z,15.32
2018-04-28T09:12:01.024Z,15.28
2018-04-28T09:13:07.448Z,15.44
2018-04-28T09:14:13.361Z,15.61
2018-04-28T09:15:20.410Z,15.80
2018-04-28T09:16:26.726Z,15.95
2018-04-28T09:17:33.136Z,16.02
2018-04-28T09:18:39.109Z,15.99
2018-04-28T09:19:46.005Z,15.96
2018-04-28T09:20:52.510Z,15.94
2018-04-28T09:21:58.872Z,15.91
2018-04-28T09:23:05.312Z,15.88
2018-04-28T09:24:11.742Z,15.83
2018-04-28T09:25:18.181Z,15.82
2018-04-28T09:26:24.597Z,15.82
2018-04-28T09:27:31.047Z,15.83
2018-04-28T09:28:37.468Z,15.84
2018-04-28T09:29:43.894Z,15.92
2018-04-28T09:30:50.407Z,15.93
2018-04-28T09:31:56.779Z,15.98
2018-04-28T09:33:03.247Z,15.94
2018-04-28T09:34:09.648Z,15.87
2018-04-28T09:35:16.109Z,15.86
2018-04-28T09:36:22.533Z,15.77
2018-04-28T09:37:28.489Z,15.69
2018-04-28T09:38:35.428Z,15.78
2018-04-28T09:39:41.379Z,15.83
2018-04-28T09:40:48.410Z,15.90
2018-04-28T09:41:54.776Z,16.02
2018-04-28T09:43:00.724Z,16.12
2018-04-28T09:44:07.668Z,16.04
2018-04-28T09:45:14.173Z,16.01
2018-04-28T09:46:20.620Z,16.14
2018-04-28T09:47:26.581Z,16.29
2018-04-28T09:48:33.049Z,16.53
2018-04-28T09:49:40.040Z,16.84
2018-04-28T09:50:46.540Z,17.13
2018-04-28T09:51:52.519Z,17.30
2018-04-28T09:52:59.511Z,17.40
2018-04-28T09:54:05.530Z,17.45
2018-04-28T09:55:12.070Z,17.46
2018-04-28T09:56:19.545Z,17.46
2018-04-28T09:57:25.047Z,17.47
2018-04-28T09:58:32.060Z,17.40
2018-04-28T09:59:38.075Z,17.27
2018-04-28T10:00:45.106Z,17.24
2018-04-28T10:01:51.093Z,17.20
2018-04-28T10:02:58.104Z,17.23
2018-04-28T10:04:04.583Z,17.27
2018-04-28T10:05:10.632Z,17.24
2018-04-28T10:06:17.121Z,17.23
2018-04-28T10:07:24.097Z,17.11
2018-04-28T10:08:30.093Z,16.93
2018-04-28T10:09:36.580Z,16.63
2018-04-28T10:10:43.594Z,16.66
2018-04-28T10:11:50.075Z,16.72
2018-04-28T10:12:56.569Z,16.80
2018-04-28T10:14:03.083Z,16.87
2018-04-28T10:15:09.086Z,16.93
2018-04-28T10:16:16.121Z,17.06
2018-04-28T10:17:22.606Z,17.22
2018-04-28T10:18:29.130Z,17.40
2018-04-28T10:19:35.650Z,17.59
2018-04-28T10:20:42.180Z,17.69
2018-04-28T10:21:48.743Z,17.69
2018-04-28T10:22:55.234Z,17.81
2018-04-28T10:24:01.275Z,17.97
2018-04-28T10:25:08.391Z,18.14
2018-04-28T10:26:14.883Z,18.37
2018-04-28T10:27:20.970Z,18.78
2018-04-28T10:28:28.009Z,19.24
2018-04-28T10:29:34.111Z,19.70
2018-04-28T10:30:41.702Z,19.88
2018-04-28T10:31:47.795Z,20.06
2018-04-28T10:32:53.951Z,20.41
2018-04-28T10:34:01.031Z,20.53
2018-04-28T10:35:07.156Z,20.51
2018-04-28T10:36:13.785Z,20.46
2018-04-28T10:37:20.942Z,20.46
2018-04-28T10:38:27.557Z,20.23
2018-04-28T10:39:34.190Z,20.34
2018-04-28T10:40:40.818Z,20.45
2018-04-28T10:41:47.488Z,20.48
2018-04-28T10:42:54.135Z,20.63
2018-04-28T10:44:00.754Z,20.52
2018-04-28T10:45:07.408Z,20.43
2018-04-28T10:46:14.062Z,20.60
2018-04-28T10:47:20.252Z,20.83
2018-04-28T10:48:26.906Z,20.99
2018-04-28T10:49:33.558Z,21.02
2018-04-28T10:50:40.218Z,21.06
2018-04-28T10:51:47.900Z,20.88
2018-04-28T10:52:54.061Z,20.58
2018-04-28T10:54:00.251Z,20.52
2018-04-28T10:55:06.931Z,20.48
2018-04-28T10:56:14.068Z,20.20
2018-04-28T10:57:20.244Z,20.30
2018-04-28T10:58:26.894Z,20.39
2018-04-28T10:59:34.068Z,20.39
2018-04-28T11:00:40.852Z,20.44
2018-04-28T11:01:46.878Z,20.35
2018-04-28T11:02:54.016Z,20.18
2018-04-28T11:04:00.208Z,20.59
2018-04-28T11:05:07.375Z,21.08
2018-04-28T11:06:14.565Z,21.49
2018-04-28T11:07:20.708Z,21.96
2018-04-28T11:08:27.406Z,21.97
2018-04-28T11:09:34.145Z,21.96
2018-04-28T11:10:40.829Z,21.86
2018-04-28T11:11:47.020Z,21.41
2018-04-28T11:12:54.220Z,21.09
2018-04-28T11:14:00.477Z,21.40
2018-04-28T11:15:07.152Z,21.64
2018-04-28T11:16:14.388Z,21.94
2018-04-28T11:17:21.085Z,21.51
2018-04-28T11:18:27.814Z,21.62
2018-04-28T11:19:34.052Z,21.64
2018-04-28T11:20:40.744Z,21.63
2018-04-28T11:21:47.942Z,21.68
2018-04-28T11:22:54.168Z,21.67
2018-04-28T11:24:00.884Z,21.67
2018-04-28T11:25:07.593Z,21.66
2018-04-28T11:26:14.795Z,21.50
2018-04-28T11:27:21.515Z,21.28
2018-04-28T11:28:27.740Z,21.15
2018-04-28T11:29:34.477Z,21.05
2018-04-28T11:30:41.186Z,21.08
2018-04-28T11:31:48.423Z,21.33
2018-04-28T11:32:55.203Z,21.48
2018-04-28T11:34:01.890Z,21.52
2018-04-28T11:35:08.161Z,21.65
2018-04-28T11:36:15.382Z,21.77
2018-04-28T11:37:22.147Z,21.90
2018-04-28T11:38:28.995Z,21.92
2018-04-28T11:39:35.734Z,21.74
2018-04-28T11:40:42.539Z,21.45
2018-04-28T11:41:48.896Z,21.35
2018-04-28T11:42:56.387Z,21.01
2018-04-28T11:44:03.148Z,20.71
2018-04-28T11:45:10.050Z,20.87
2018-04-28T11:46:16.404Z,21.02
2018-04-28T11:47:23.766Z,20.81
2018-04-28T11:48:30.143Z,20.58
2018-04-28T11:49:37.553Z,20.39
2018-04-28T11:50:44.590Z,20.15
2018-04-28T11:51:51.424Z,20.03
2018-04-28T11:52:58.421Z,19.83
2018-04-28T11:54:04.982Z,19.97
2018-04-28T11:55:11.991Z,20.30
2018-04-28T11:56:19.550Z,20.51
2018-04-28T11:57:26.161Z,20.65
2018-04-28T11:58:33.792Z,20.73
2018-04-28T11:59:40.963Z,20.79
2018-04-28T12:00:48.145Z,20.84
2018-04-28T12:01:54.921Z,20.74
2018-04-28T12:03:02.872Z,20.98
2018-04-28T12:04:09.738Z,21.31
2018-04-28T12:05:16.450Z,21.57
2018-04-28T12:06:23.556Z,21.59
2018-04-28T12:07:31.130Z,21.65
2018-04-28T12:08:38.236Z,21.69
2018-04-28T12:09:45.583Z,21.67
2018-04-28T12:10:52.385Z,21.80
2018-04-28T12:11:58.846Z,22.08
2018-04-28T12:13:06.390Z,22.33
2018-04-28T12:14:13.291Z,22.39
2018-04-28T12:15:21.107Z,22.30
2018-04-28T12:16:26.772Z,22.39
2018-04-28T12:17:33.760Z,22.35
2018-04-28T12:18:40.730Z,22.38
2018-04-28T12:19:48.100Z,22.38
2018-04-28T12:20:55.200Z,21.97
2018-04-28T12:22:01.930Z,21.70
2018-04-28T12:23:08.808Z,21.69
2018-04-28T12:24:15.174Z,21.70
2018-04-28T12:25:22.561Z,22.09
2018-04-28T12:26:29.444Z,22.26
2018-04-28T12:27:36.398Z,22.29
2018-04-28T12:28:43.159Z,22.39
2018-04-28T12:29:50.109Z,22.50
2018-04-28T12:30:56.408Z,22.36
2018-04-28T12:32:03.824Z,22.12
2018-04-28T12:33:10.095Z,21.98
2018-04-28T12:34:17.437Z,21.93
2018-04-28T12:35:24.272Z,21.94
2018-04-28T12:36:30.643Z,22.15
2018-04-28T12:37:37.954Z,22.03
2018-04-28T12:38:44.262Z,22.11
2018-04-28T12:39:51.573Z,22.24
2018-04-28T12:40:57.901Z,22.09
2018-04-28T12:42:05.218Z,21.93
2018-04-28T12:43:11.991Z,22.05
2018-04-28T12:44:18.260Z,22.00
2018-04-28T12:45:25.516Z,22.00
2018-04-28T12:46:32.307Z,22.03
2018-04-28T12:47:39.045Z,21.87
2018-04-28T12:48:45.262Z,21.64
2018-04-28T12:49:52.487Z,21.45
2018-04-28T12:50:59.214Z,21.13
2018-04-28T12:52:05.932Z,21.02
2018-04-28T12:53:12.611Z,21.20
2018-04-28T12:54:19.356Z,21.36
2018-04-28T12:55:27.070Z,21.33
2018-04-28T12:56:33.791Z,20.88
2018-04-28T12:57:40.537Z,20.73
2018-04-28T12:58:45.598Z,20.60
2018-04-28T12:59:52.284Z,20.54
2018-04-28T13:00:59.468Z,20.65
2018-04-28T13:02:05.650Z,20.83
2018-04-28T13:03:12.391Z,21.00
2018-04-28T13:04:19.478Z,21.12
2018-04-28T13:05:26.138Z,21.24
2018-04-28T13:06:32.842Z,21.18
2018-04-28T13:07:39.480Z,21.17
2018-04-28T13:08:46.144Z,20.94
2018-04-28T13:09:52.829Z,21.03
2018-04-28T13:10:58.985Z,21.09
2018-04-28T13:12:07.170Z,21.26
2018-04-28T13:13:12.823Z,21.49
2018-04-28T13:14:19.493Z,21.35
2018-04-28T13:15:26.192Z,21.24
2018-04-28T13:16:32.403Z,21.58
2018-04-28T13:17:39.650Z,21.98
2018-04-28T13:18:47.313Z,22.23
2018-04-28T13:19:53.051Z,22.86
2018-04-28T13:20:59.951Z,23.33
2018-04-28T13:22:07.131Z,23.68
2018-04-28T13:23:13.526Z,23.83
2018-04-28T13:24:20.425Z,23.81
2018-04-28T13:25:27.433Z,23.50
2018-04-28T13:26:34.081Z,23.11
2018-04-28T13:27:40.446Z,22.62
2018-04-28T13:28:47.844Z,22.40
2018-04-28T13:29:54.756Z,22.43
2018-04-28T13:31:01.200Z,22.33
2018-04-28T13:32:08.651Z,22.33
2018-04-28T13:33:15.587Z,22.54
2018-04-28T13:34:22.079Z,22.78
2018-04-28T13:35:29.540Z,22.88
2018-04-28T13:36:36.578Z,23.06
2018-04-28T13:37:43.043Z,23.20
2018-04-28T13:38:50.483Z,23.30
2018-04-28T13:39:56.932Z,23.32
2018-04-28T13:41:04.448Z,23.24
2018-04-28T13:42:11.357Z,23.66
2018-04-28T13:43:18.397Z,24.19
2018-04-28T13:44:25.345Z,24.62
2018-04-28T13:45:31.820Z,24.66
2018-04-28T13:46:39.800Z,24.65
2018-04-28T13:47:46.384Z,24.22
2018-04-28T13:48:54.384Z,24.08
2018-04-28T13:49:59.880Z,24.08
2018-04-28T13:51:07.386Z,24.03
2018-04-28T13:52:14.408Z,23.94
2018-04-28T13:53:20.885Z,23.78
2018-04-28T13:54:28.390Z,23.66
2018-04-28T13:55:34.830Z,23.63
2018-04-28T13:56:41.801Z,23.57
2018-04-28T13:57:49.214Z,23.52
2018-04-28T13:58:56.147Z,23.54
2018-04-28T14:00:03.070Z,23.64
2018-04-28T14:01:09.502Z,23.72
2018-04-28T14:02:16.412Z,23.39
2018-04-28T14:03:23.763Z,23.32
2018-04-28T14:04:30.146Z,23.35
2018-04-28T14:05:37.044Z,23.28
2018-04-28T14:06:43.878Z,23.13
2018-04-28T14:07:50.622Z,23.08
2018-04-28T14:08:57.449Z,22.77
2018-04-28T14:10:04.692Z,22.55
2018-04-28T14:11:11.468Z,22.41
2018-04-28T14:12:18.237Z,22.32
2018-04-28T14:13:24.975Z,22.37
2018-04-28T14:14:31.663Z,22.46
2018-04-28T14:15:38.497Z,22.53
2018-04-28T14:16:45.225Z,22.45
2018-04-28T14:17:51.946Z,22.48
2018-04-28T14:18:58.678Z,22.22
2018-04-28T14:20:04.906Z,22.25
2018-04-28T14:21:12.138Z,22.06
2018-04-28T14:22:18.863Z,22.18
2018-04-28T14:23:25.584Z,22.33
2018-04-28T14:24:32.394Z,22.34
2018-04-28T14:25:38.517Z,22.41
2018-04-28T14:26:45.253Z,22.50
2018-04-28T14:27:52.434Z,22.59